Time;durP1;ratioP1;P1;durP2;ratioP2;P2;SDS_P1;SDS_P2;PMS_P1;PMS_P2;Temp;Humidity;BMP_temperature;BMP_pressure;BME280_temperature;BME280_humidity;BME280_pressure;Samples;Min_cycle;Max_cycle;Signal;HPM_P1;HPM_P2
2024/01/23 00:00:44;;;;;;;77.95;33.83;;;;;;;;;;4885773;29;20029;-90
2024/01/23 00:03:12;;;;;;;74.40;30.60;;;;;;;;;;4906044;29;20017;-91
2024/01/23 00:05:47;;;;;;;87.15;34.85;;;;;;;;;;4908093;29;20056;-91
2024/01/23 00:08:13;;;;;;;72.85;31.58;;;;;;;;;;4893082;29;20112;-96
2024/01/23 00:10:41;;;;;;;76.70;31.77;;;;;;;;;;4891693;29;20043;-91
2024/01/23 00:13:07;;;;;;;74.70;30.40;;;;;;;;;;4891560;29;20025;-91
2024/01/23 00:15:36;;;;;;;70.03;30.00;;;;;;;;;;4892355;29;20029;-96
2024/01/23 00:18:07;;;;;;;73.05;31.23;;;;;;;;;;4891774;29;20032;-91
2024/01/23 00:20:33;;;;;;;69.00;30.27;;;;;;;;;;4891178;29;20505;-90
2024/01/23 00:22:59;;;;;;;75.63;31.15;;;;;;;;;;4891760;29;20133;-89
2024/01/23 00:25:25;;;;;;;83.63;33.85;;;;;;;;;;4892385;29;20040;-91
2024/01/23 00:28:01;;;;;;;74.18;31.63;;;;;;;;;;4892872;29;20024;-96
2024/01/23 00:30:28;;;;;;;74.85;31.02;;;;;;;;;;4891465;29;20029;-93
2024/01/23 00:32:56;;;;;;;80.30;32.35;;;;;;;;;;4890400;29;20171;-91
2024/01/23 00:35:46;;;;;;;90.68;35.05;;;;;;;;;;4908640;29;20047;-95
2024/01/23 00:38:15;;;;;;;74.22;31.38;;;;;;;;;;4890839;29;20061;-92
2024/01/23 00:40:42;;;;;;;80.00;33.88;;;;;;;;;;4892455;29;20044;-91
2024/01/23 00:43:08;;;;;;;81.30;33.97;;;;;;;;;;4891374;29;20060;-92
2024/01/23 00:45:38;;;;;;;78.10;33.63;;;;;;;;;;4892062;29;20098;-93
2024/01/23 00:48:06;;;;;;;78.20;31.83;;;;;;;;;;4897293;29;20041;-91
2024/01/23 00:50:35;;;;;;;78.63;33.10;;;;;;;;;;4866658;29;20108;-91
2024/01/23 00:53:01;;;;;;;79.25;32.80;;;;;;;;;;4872465;29;20029;-91
2024/01/23 00:55:47;;;;;;;70.60;31.48;;;;;;;;;;4873023;29;20029;-96
2024/01/23 00:58:14;;;;;;;76.53;31.77;;;;;;;;;;4874061;29;20029;-92
2024/01/23 01:00:44;;;;;;;72.13;32.25;;;;;;;;;;4872669;29;20043;-90
2024/01/23 01:03:10;;;;;;;67.38;30.35;;;;;;;;;;4872725;29;20057;-91
2024/01/23 01:05:38;;;;;;;68.70;30.77;;;;;;;;;;4871694;29;20033;-90
2024/01/23 01:08:06;;;;;;;79.20;33.35;;;;;;;;;;4873442;29;20025;-91
2024/01/23 01:10:32;;;;;;;79.65;32.38;;;;;;;;;;4872197;29;20029;-91
2024/01/23 01:13:13;;;;;;;78.07;33.67;;;;;;;;;;4887044;29;20061;-95
2024/01/23 01:15:41;;;;;;;77.10;33.70;;;;;;;;;;4878684;29;20513;-90
2024/01/23 01:18:07;;;;;;;80.75;33.75;;;;;;;;;;4871569;29;20029;-91
2024/01/23 01:20:35;;;;;;;72.47;31.20;;;;;;;;;;4888476;29;20137;-91
2024/01/23 01:23:01;;;;;;;76.55;33.75;;;;;;;;;;4871838;29;20496;-91
2024/01/23 01:25:28;;;;;;;87.18;34.35;;;;;;;;;;4872155;29;20040;-90
2024/01/23 01:27:59;;;;;;;86.93;34.45;;;;;;;;;;4871373;29;20025;-91
2024/01/23 01:30:29;;;;;;;88.53;36.50;;;;;;;;;;4870757;29;20033;-94
2024/01/23 01:33:00;;;;;;;83.93;36.42;;;;;;;;;;4854362;29;20045;-90
2024/01/23 01:35:26;;;;;;;92.22;38.58;;;;;;;;;;4853485;29;20049;-92
2024/01/23 01:38:23;;;;;;;81.72;36.65;;;;;;;;;;4853049;29;20065;-92
2024/01/23 01:40:49;;;;;;;89.47;35.90;;;;;;;;;;4859947;29;20044;-91
2024/01/23 01:43:28;;;;;;;78.05;34.05;;;;;;;;;;4910931;29;20092;-92
2024/01/23 01:46:20;;;;;;;;;;;;;;;;;;;;;
2024/01/23 01:48:48;;;;;;;79.15;33.92;;;;;;;;;;4905116;29;20549;-91
2024/01/23 01:51:15;;;;;;;83.75;35.38;;;;;;;;;;4887611;29;20396;-90
2024/01/23 01:53:42;;;;;;;87.85;35.72;;;;;;;;;;4882605;29;20402;-90
2024/01/23 01:56:08;;;;;;;79.32;35.42;;;;;;;;;;4882660;29;20032;-91
2024/01/23 01:58:35;;;;;;;79.30;34.55;;;;;;;;;;4869230;29;20037;-91
2024/01/23 02:01:01;;;;;;;76.82;34.00;;;;;;;;;;4863929;29;20096;-94
2024/01/23 02:03:27;;;;;;;92.97;37.97;;;;;;;;;;4864353;29;20033;-91
2024/01/23 02:06:06;;;;;;;92.38;36.85;;;;;;;;;;4864101;29;20053;-90
2024/01/23 02:08:43;;;;;;;80.10;35.25;;;;;;;;;;4864318;29;20033;-95
2024/01/23 02:11:12;;;;;;;77.30;34.08;;;;;;;;;;4872494;29;20040;-90
2024/01/23 02:13:38;;;;;;;83.80;33.65;;;;;;;;;;4883222;29;20513;-91
2024/01/23 02:16:08;;;;;;;96.13;37.72;;;;;;;;;;4882808;29;20032;-95
2024/01/23 02:18:35;;;;;;;87.18;35.05;;;;;;;;;;4891702;29;20066;-90
2024/01/23 02:21:11;;;;;;;83.75;33.97;;;;;;;;;;4864181;29;20033;-90
2024/01/23 02:23:37;;;;;;;97.85;36.92;;;;;;;;;;4866945;29;20040;-91
2024/01/23 02:26:03;;;;;;;80.20;34.75;;;;;;;;;;4883091;29;20104;-90
2024/01/23 02:28:33;;;;;;;91.13;36.72;;;;;;;;;;4883507;29;20467;-95
2024/01/23 02:30:59;;;;;;;85.60;36.25;;;;;;;;;;4883435;29;20443;-90
2024/01/23 02:33:25;;;;;;;86.00;36.55;;;;;;;;;;4876751;29;20128;-91
2024/01/23 02:35:54;;;;;;;83.32;35.38;;;;;;;;;;4865097;29;20047;-90
2024/01/23 02:38:20;;;;;;;82.75;35.70;;;;;;;;;;4864144;29;20025;-90
2024/01/23 02:40:59;;;;;;;;;;;;;;;;;;;;;
2024/01/23 02:43:26;;;;;;;88.40;36.88;;;;;;;;;;4868473;29;20496;-91
2024/01/23 02:46:06;;;;;;;91.88;37.83;;;;;;;;;;4867841;29;20067;-96
2024/01/23 02:48:32;;;;;;;84.35;35.72;;;;;;;;;;4883085;29;20037;-91
2024/01/23 02:51:01;;;;;;;90.53;38.13;;;;;;;;;;4882473;29;20029;-94
2024/01/23 02:53:27;;;;;;;84.63;37.53;;;;;;;;;;4882523;29;20037;-92
2024/01/23 02:55:54;;;;;;;100.80;39.58;;;;;;;;;;4883167;29;20039;-91
2024/01/23 02:58:21;;;;;;;99.25;38.92;;;;;;;;;;4877629;29;20032;-94
2024/01/23 03:00:51;;;;;;;101.78;42.78;;;;;;;;;;4888123;29;20113;-90
2024/01/23 03:03:18;;;;;;;97.38;39.28;;;;;;;;;;4885806;29;20036;-91
2024/01/23 03:05:51;;;;;;;90.95;37.83;;;;;;;;;;4886290;29;20031;-93
2024/01/23 03:08:17;;;;;;;108.68;39.15;;;;;;;;;;4882475;29;20037;-90
2024/01/23 03:10:50;;;;;;;96.65;38.75;;;;;;;;;;4887093;29;20037;-93
2024/01/23 03:13:16;;;;;;;91.95;37.38;;;;;;;;;;4872211;29;20435;-91
2024/01/23 03:16:17;;;;;;;84.05;37.05;;;;;;;;;;4883475;29;20085;-96
2024/01/23 03:18:43;;;;;;;82.18;35.08;;;;;;;;;;4867507;29;20044;-91
2024/01/23 03:21:10;;;;;;;81.30;35.13;;;;;;;;;;4875646;29;20025;-90
2024/01/23 03:23:36;;;;;;;92.55;35.47;;;;;;;;;;4898026;29;20081;-92
2024/01/23 03:26:02;;;;;;;93.65;38.95;;;;;;;;;;4889399;29;20056;-91
2024/01/23 03:28:28;;;;;;;104.25;40.78;;;;;;;;;;4867663;29;20074;-90
2024/01/23 03:30:58;;;;;;;103.03;40.25;;;;;;;;;;4875048;29;20029;-91
2024/01/23 03:33:29;;;;;;;85.38;36.70;;;;;;;;;;4877990;29;20048;-95
2024/01/23 03:35:55;;;;;;;96.00;38.60;;;;;;;;;;4876650;29;20081;-90
2024/01/23 03:38:21;;;;;;;102.32;41.22;;;;;;;;;;4876784;29;20024;-93
2024/01/23 03:40:47;;;;;;;87.72;36.60;;;;;;;;;;4879346;29;20483;-89
2024/01/23 03:43:13;;;;;;;77.40;35.40;;;;;;;;;;4882722;29;20534;-91
2024/01/23 03:45:39;;;;;;;82.25;36.22;;;;;;;;;;4882079;29;20040;-89
2024/01/23 03:48:06;;;;;;;92.40;38.53;;;;;;;;;;4887565;29;20398;-91
2024/01/23 03:50:32;;;;;;;86.18;37.33;;;;;;;;;;4885973;29;20029;-93
2024/01/23 03:53:04;;;;;;;85.47;35.28;;;;;;;;;;4889306;29;20040;-89
2024/01/23 03:56:00;;;;;;;80.32;35.53;;;;;;;;;;4932760;23;20053;-91
2024/01/23 03:58:26;;;;;;;87.32;34.70;;;;;;;;;;4866392;29;20120;-90
2024/01/23 04:00:53;;;;;;;85.53;33.45;;;;;;;;;;4874436;29;20068;-90
2024/01/23 04:03:19;;;;;;;85.07;34.75;;;;;;;;;;4882504;29;20041;-90
2024/01/23 04:05:45;;;;;;;85.30;34.45;;;;;;;;;;4874209;29;20029;-89
2024/01/23 04:08:24;;;;;;;82.45;34.85;;;;;;;;;;4871825;29;20076;-95
2024/01/23 04:10:50;;;;;;;83.28;34.42;;;;;;;;;;4885100;29;20053;-90
2024/01/23 04:13:16;;;;;;;84.95;37.65;;;;;;;;;;4906395;29;20486;-90
2024/01/23 04:15:42;;;;;;;83.90;36.75;;;;;;;;;;4885102;29;20032;-91
2024/01/23 04:18:14;;;;;;;86.97;38.63;;;;;;;;;;4877231;29;20136;-96
2024/01/23 04:20:40;;;;;;;91.15;39.20;;;;;;;;;;4884730;29;20144;-90
2024/01/23 04:23:06;;;;;;;95.20;40.83;;;;;;;;;;4884968;29;20121;-90
2024/01/23 04:28:41;;;;;;;86.10;35.55;;;;;;;;;;4881854;29;20550;-90
2024/01/23 04:31:07;;;;;;;82.18;35.88;;;;;;;;;;4881499;29;20029;-90
2024/01/23 04:36:17;;;;;;;89.55;37.75;;;;;;;;;;4894551;23;20537;-92
2024/01/23 04:47:01;;;;;;;102.03;41.38;;;;;;;;;;4892848;23;20068;-91
2024/01/23 04:52:03;;;;;;;90.00;38.05;;;;;;;;;;4889751;29;20109;-91
2024/01/23 04:54:35;;;;;;;103.07;41.70;;;;;;;;;;4884563;29;20024;-93
2024/01/23 04:57:02;;;;;;;105.40;42.05;;;;;;;;;;4880303;29;20029;-91
2024/01/23 04:59:28;;;;;;;93.03;40.05;;;;;;;;;;4873883;29;20069;-90
2024/01/23 05:02:10;;;;;;;87.20;36.75;;;;;;;;;;4887067;29;20040;-92
2024/01/23 05:11:07;;;;;;;;;;;;;;;;;;;;;
2024/01/23 05:13:36;;;;;;;;;;;;;;;;;;4881552;29;20092;-92
2024/01/23 05:16:02;;;;;;;91.07;35.03;;;;;;;;;;4865864;29;20266;-90
2024/01/23 05:21:37;;;;;;;103.07;41.30;;;;;;;;;;5142439;23;20065;-94
2024/01/23 05:27:30;;;;;;;122.05;42.47;;;;;;;;;;4871942;29;20037;-96
2024/01/23 05:32:30;;;;;;;103.47;39.72;;;;;;;;;;4883401;29;20108;-91
2024/01/23 05:35:36;;;;;;;102.38;38.47;;;;;;;;;;4878576;29;20040;-95
2024/01/23 05:38:09;;;;;;;106.07;41.20;;;;;;;;;;4866405;29;20025;-95
2024/01/23 05:41:12;;;;;;;111.47;41.60;;;;;;;;;;4864639;29;20451;-95
2024/01/23 05:43:38;;;;;;;117.40;45.17;;;;;;;;;;4866675;29;20076;-90
2024/01/23 05:52:15;;;;;;;125.65;45.05;;;;;;;;;;5212648;23;20063;-92
2024/01/23 05:54:41;;;;;;;123.22;45.08;;;;;;;;;;4882180;29;20494;-92
2024/01/23 06:11:57;;;;;;;132.65;44.60;;;;;;;;;;5469274;23;19927;-91
2024/01/23 06:14:26;;;;;;;110.65;43.75;;;;;;;;;;4866695;29;20021;-94
2024/01/23 06:28:22;;;;;;;109.22;40.85;;;;;;;;;;4888593;29;20048;-92
2024/01/23 06:34:26;;;;;;;116.70;40.88;;;;;;;;;;4905704;29;20096;-96
2024/01/23 06:37:19;;;;;;;115.30;42.42;;;;;;;;;;4877212;29;20197;-92
2024/01/23 06:40:09;;;;;;;107.45;40.95;;;;;;;;;;4875841;29;20052;-96
2024/01/23 06:45:52;;;;;;;106.88;40.70;;;;;;;;;;5658132;23;20035;-89
2024/01/23 06:56:50;;;;;;;102.95;40.63;;;;;;;;;;4915356;23;20132;-96
2024/01/23 07:05:11;;;;;;;111.38;41.80;;;;;;;;;;5047434;23;20061;-96
2024/01/23 07:16:55;;;;;;;109.35;40.65;;;;;;;;;;4911500;29;20107;-90
2024/01/23 07:53:34;;;;;;;;;;;;;;;;;;;;;
2024/01/23 07:59:34;;;;;;;96.22;42.95;;;;;;;;;;4838047;29;20091;-93
2024/01/23 08:19:27;;;;;;;95.65;51.70;;;;;;;;;;4894719;29;20100;-92
2024/01/23 08:46:54;;;;;;;103.90;45.90;;;;;;;;;;5061464;23;20074;-90
2024/01/23 08:50:05;;;;;;;100.68;47.13;;;;;;;;;;4883156;29;20048;-95
2024/01/23 08:52:48;;;;;;;;;;;;;;;;;;;;;
2024/01/23 09:01:29;;;;;;;100.95;47.35;;;;;;;;;;4895312;29;20281;-91
2024/01/23 09:03:56;;;;;;;105.45;51.25;;;;;;;;;;5302339;23;20056;-90
2024/01/23 09:38:50;;;;;;;85.63;42.80;;;;;;;;;;4903221;29;20032;-90
2024/01/23 09:41:39;;;;;;;100.03;44.85;;;;;;;;;;4894656;29;20020;-92
2024/01/23 09:46:45;;;;;;;112.95;48.75;;;;;;;;;;5141674;23;20064;-92
2024/01/23 09:51:57;;;;;;;102.63;47.67;;;;;;;;;;5274095;23;20056;-91
2024/01/23 11:03:28;;;;;;;109.30;49.70;;;;;;;;;;4865542;29;20621;-92
2024/01/23 11:41:27;;;;;;;92.25;42.00;;;;;;;;;;4928570;23;20067;-90
2024/01/23 11:44:15;;;;;;;91.70;53.78;;;;;;;;;;4905323;29;20044;-96
2024/01/23 11:46:42;;;;;;;93.50;58.58;;;;;;;;;;4907131;29;20032;-92
2024/01/23 12:02:14;;;;;;;86.40;47.65;;;;;;;;;;4908980;23;20142;-95
2024/01/23 12:04:41;;;;;;;77.55;47.08;;;;;;;;;;4871319;29;20033;-92
2024/01/23 12:07:07;;;;;;;82.75;48.03;;;;;;;;;;4887216;29;20044;-91
2024/01/23 12:09:51;;;;;;;81.07;51.42;;;;;;;;;;4890998;29;20028;-96
2024/01/23 12:15:24;;;;;;;82.45;47.70;;;;;;;;;;4896437;29;20040;-96
2024/01/23 12:17:53;;;;;;;82.75;43.60;;;;;;;;;;4882315;29;20033;-96
2024/01/23 12:40:31;;;;;;;52.10;38.38;;;;;;;;;;4913415;29;20117;-89
2024/01/23 12:59:00;;;;;;;42.65;28.77;;;;;;;;;;4897978;29;20103;-91
2024/01/23 13:13:05;;;;;;;19.02;17.45;;;;;;;;;;4945375;23;20125;-90
2024/01/23 13:15:47;;;;;;;19.30;17.90;;;;;;;;;;4879261;29;20025;-95
2024/01/23 13:35:17;;;;;;;24.92;23.17;;;;;;;;;;5689933;23;20146;-91
2024/01/23 13:37:43;;;;;;;23.85;22.25;;;;;;;;;;5181759;23;20299;-89
2024/01/23 13:40:10;;;;;;;28.45;26.45;;;;;;;;;;4876136;29;20053;-87
2024/01/23 13:45:24;;;;;;;26.83;25.10;;;;;;;;;;4963103;23;20065;-89
2024/01/23 13:48:00;;;;;;;31.50;29.35;;;;;;;;;;4863517;29;20111;-88
2024/01/23 13:50:58;;;;;;;30.38;28.40;;;;;;;;;;4896537;23;20089;-89
2024/01/23 13:53:30;;;;;;;25.95;24.38;;;;;;;;;;4981360;23;20436;-90
2024/01/23 14:17:57;;;;;;;22.48;20.95;;;;;;;;;;4890345;29;20057;-96
2024/01/23 15:21:47;;;;;;;13.82;12.73;;;;;;;;;;4911677;23;20053;-88
2024/01/23 15:24:16;;;;;;;12.68;11.65;;;;;;;;;;4873179;29;20025;-88
2024/01/23 15:26:50;;;;;;;14.80;13.68;;;;;;;;;;4878846;29;20045;-87
2024/01/23 15:42:04;;;;;;;8.98;7.38;;;;;;;;;;4855559;29;20452;-89
2024/01/23 15:44:33;;;;;;;12.23;10.23;;;;;;;;;;4913854;23;20091;-96
2024/01/23 15:47:03;;;;;;;11.10;10.27;;;;;;;;;;4887206;29;20043;-92
2024/01/23 15:49:31;;;;;;;10.80;8.73;;;;;;;;;;4906743;29;20052;-92
2024/01/23 15:52:03;;;;;;;11.88;9.63;;;;;;;;;;4904040;29;20020;-94
2024/01/23 15:54:30;;;;;;;13.20;9.73;;;;;;;;;;4906750;29;20039;-89
2024/01/23 15:56:56;;;;;;;13.15;12.00;;;;;;;;;;4931294;23;20026;-90
2024/01/23 15:59:22;;;;;;;12.65;11.43;;;;;;;;;;4872826;29;20049;-91
2024/01/23 16:02:00;;;;;;;14.63;13.27;;;;;;;;;;4869458;29;20045;-92
2024/01/23 16:04:26;;;;;;;12.02;11.20;;;;;;;;;;4866439;29;20048;-88
2024/01/23 16:07:14;;;;;;;12.18;11.25;;;;;;;;;;4870080;29;20040;-89
2024/01/23 16:09:58;;;;;;;12.85;11.63;;;;;;;;;;4873809;29;20044;-96
2024/01/23 16:16:00;;;;;;;11.40;10.10;;;;;;;;;;4888036;29;20500;-96
2024/01/23 16:18:45;;;;;;;12.00;10.75;;;;;;;;;;4851831;29;20273;-94
2024/01/23 16:21:33;;;;;;;;;;;;;;;;;;;;;
2024/01/23 16:24:10;;;;;;;12.68;7.78;;;;;;;;;;4845887;29;20041;-90
2024/01/23 16:27:09;;;;;;;12.05;9.65;;;;;;;;;;4848693;29;20034;-96
2024/01/23 16:29:48;;;;;;;13.18;11.82;;;;;;;;;;4835204;29;20034;-93
2024/01/23 16:32:32;;;;;;;13.60;9.73;;;;;;;;;;4816341;29;20030;-91
2024/01/23 16:34:58;;;;;;;11.32;10.32;;;;;;;;;;4845944;29;20452;-92
2024/01/23 16:37:25;;;;;;;12.63;11.45;;;;;;;;;;4828954;29;20114;-94
2024/01/23 16:39:53;;;;;;;13.85;12.18;;;;;;;;;;4830664;29;20046;-92
2024/01/23 16:42:19;;;;;;;11.35;9.90;;;;;;;;;;4827975;29;20026;-95
2024/01/23 16:44:46;;;;;;;12.27;10.48;;;;;;;;;;4876036;29;20040;-95
2024/01/23 16:47:12;;;;;;;10.15;9.00;;;;;;;;;;4883531;29;20029;-94
2024/01/23 16:49:41;;;;;;;13.90;12.57;;;;;;;;;;4883809;29;20120;-96
2024/01/23 16:52:23;;;;;;;7.88;6.97;;;;;;;;;;4884189;29;20108;-96
2024/01/23 16:54:52;;;;;;;11.95;10.75;;;;;;;;;;4884123;29;20032;-94
2024/01/23 16:57:19;;;;;;;10.00;8.70;;;;;;;;;;4884347;29;20045;-94
2024/01/23 16:59:49;;;;;;;10.20;9.30;;;;;;;;;;4883900;29;20036;-94
2024/01/23 17:02:25;;;;;;;10.82;9.63;;;;;;;;;;5106108;23;20020;-95
2024/01/23 17:08:23;;;;;;;13.52;12.27;;;;;;;;;;4824765;29;20515;-91
2024/01/23 17:10:53;;;;;;;13.65;8.63;;;;;;;;;;4809946;29;20038;-93
2024/01/23 17:13:38;;;;;;;17.23;10.68;;;;;;;;;;4857800;29;20420;-95
2024/01/23 17:16:07;;;;;;;13.63;9.90;;;;;;;;;;4868906;29;20084;-95
2024/01/23 17:18:35;;;;;;;13.27;9.25;;;;;;;;;;4865006;29;20368;-86
2024/01/23 17:24:21;;;;;;;11.73;8.82;;;;;;;;;;4894847;29;20036;-95
2024/01/23 17:26:47;;;;;;;10.32;7.50;;;;;;;;;;4890699;29;20025;-88
2024/01/23 17:32:18;;;;;;;9.02;6.90;;;;;;;;;;4837883;29;20046;-96
2024/01/23 17:34:58;;;;;;;10.10;8.27;;;;;;;;;;4810388;29;20068;-96
2024/01/23 17:37:49;;;;;;;10.50;7.63;;;;;;;;;;4833810;29;20037;-95
2024/01/23 17:40:25;;;;;;;11.45;7.70;;;;;;;;;;4963494;23;20053;-89
2024/01/23 17:50:44;;;;;;;14.50;9.52;;;;;;;;;;5670859;23;20049;-95
2024/01/23 17:53:19;;;;;;;10.65;9.60;;;;;;;;;;4982127;23;20053;-95
2024/01/23 18:01:53;;;;;;;11.75;8.77;;;;;;;;;;4903011;23;20059;-96
2024/01/23 18:07:52;;;;;;;7.88;4.97;;;;;;;;;;5487894;23;20067;-96
2024/01/23 18:15:52;;;;;;;14.73;9.93;;;;;;;;;;4898356;29;20449;-91
2024/01/23 18:20:58;;;;;;;11.95;8.00;;;;;;;;;;5041591;23;20053;-89
2024/01/23 18:23:28;;;;;;;12.70;7.10;;;;;;;;;;4899830;23;20128;-96
2024/01/23 18:25:54;;;;;;;10.93;7.78;;;;;;;;;;4872130;29;20032;-90
2024/01/23 18:28:20;;;;;;;11.75;8.35;;;;;;;;;;4874211;29;20029;-95
2024/01/23 18:30:48;;;;;;;11.77;9.52;;;;;;;;;;4933932;23;20060;-90
2024/01/23 18:33:32;;;;;;;10.40;8.43;;;;;;;;;;4879161;29;20028;-95
2024/01/23 18:36:08;;;;;;;8.35;7.45;;;;;;;;;;4888827;29;20099;-94
2024/01/23 18:38:47;;;;;;;10.70;8.20;;;;;;;;;;4871432;29;20041;-95
2024/01/23 18:41:39;;;;;;;9.68;8.32;;;;;;;;;;4880521;29;20041;-96
2024/01/23 18:44:05;;;;;;;8.35;6.50;;;;;;;;;;4855374;29;20057;-86
2024/01/23 18:46:53;;;;;;;11.38;10.43;;;;;;;;;;4900731;29;20033;-88
2024/01/23 18:49:20;;;;;;;14.20;7.97;;;;;;;;;;4896702;29;20048;-90
2024/01/23 18:51:52;;;;;;;10.40;9.50;;;;;;;;;;4892381;29;20060;-96
2024/01/23 18:54:18;;;;;;;12.52;8.85;;;;;;;;;;4910293;23;20503;-88
2024/01/23 18:56:44;;;;;;;11.85;10.63;;;;;;;;;;4874327;29;20047;-88
2024/01/23 18:59:38;;;;;;;11.18;10.05;;;;;;;;;;4896276;29;20394;-96
2024/01/23 19:02:17;;;;;;;13.23;9.52;;;;;;;;;;4895883;29;20501;-88
2024/01/23 19:08:49;;;;;;;;;;;;;;;;;;;;;
2024/01/23 19:11:23;;;;;;;11.43;8.52;;;;;;;;;;5234399;23;20052;-95
2024/01/23 19:13:52;;;;;;;8.85;5.57;;;;;;;;;;4861617;29;20022;-90
2024/01/23 19:16:43;;;;;;;10.23;8.80;;;;;;;;;;4855590;29;20049;-96
2024/01/23 19:19:10;;;;;;;14.88;11.90;;;;;;;;;;4859075;29;20078;-88
2024/01/23 19:26:41;;;;;;;16.35;14.32;;;;;;;;;;4930158;23;20048;-91
2024/01/23 19:29:32;;;;;;;22.30;16.95;;;;;;;;;;4874076;29;20026;-92
2024/01/23 19:38:02;;;;;;;19.20;15.43;;;;;;;;;;5222667;23;20097;-96
2024/01/23 19:40:28;;;;;;;14.90;11.68;;;;;;;;;;4994009;23;21730;-89
2024/01/23 19:51:25;;;;;;;14.95;13.30;;;;;;;;;;5279511;23;20036;-90
2024/01/23 19:53:51;;;;;;;23.70;21.65;;;;;;;;;;5204761;23;20049;-89
2024/01/23 19:56:17;;;;;;;25.52;22.45;;;;;;;;;;5019679;23;20056;-89
2024/01/23 20:01:18;;;;;;;22.05;19.92;;;;;;;;;;5703194;23;20121;-91
2024/01/23 20:08:56;;;;;;;25.25;22.60;;;;;;;;;;5289763;23;21604;-87
2024/01/23 20:14:25;;;;;;;19.02;17.02;;;;;;;;;;5116935;23;20051;-87
2024/01/23 20:19:48;;;;;;;28.15;25.23;;;;;;;;;;5111361;23;20053;-91
2024/01/23 20:22:17;;;;;;;48.65;32.63;;;;;;;;;;4873115;29;20013;-96
2024/01/23 20:24:43;;;;;;;96.63;51.15;;;;;;;;;;4880982;29;20054;-90
2024/01/23 20:27:12;;;;;;;123.60;59.20;;;;;;;;;;4891859;29;20017;-88
2024/01/23 20:32:15;;;;;;;91.72;50.03;;;;;;;;;;4892986;29;20139;-89
2024/01/23 20:34:42;;;;;;;57.92;41.40;;;;;;;;;;4874434;29;20045;-87
2024/01/23 20:37:23;;;;;;;55.22;35.28;;;;;;;;;;4888148;29;20029;-88
2024/01/23 20:39:49;;;;;;;46.90;38.10;;;;;;;;;;4976963;23;20056;-88
2024/01/23 20:42:18;;;;;;;47.53;34.50;;;;;;;;;;4875069;29;20035;-90
2024/01/23 20:44:50;;;;;;;46.83;33.97;;;;;;;;;;4869373;29;20127;-92
2024/01/23 20:47:20;;;;;;;51.88;32.30;;;;;;;;;;4900115;23;20588;-91
2024/01/23 20:49:49;;;;;;;53.67;34.95;;;;;;;;;;4893822;29;20033;-90
2024/01/23 20:52:15;;;;;;;35.38;24.60;;;;;;;;;;4888791;29;20029;-90
2024/01/23 20:54:53;;;;;;;27.48;18.02;;;;;;;;;;5042132;23;20057;-90
2024/01/23 20:57:20;;;;;;;37.75;28.35;;;;;;;;;;4890582;29;20555;-88
2024/01/23 20:59:47;;;;;;;30.58;27.25;;;;;;;;;;4941085;23;20049;-91
2024/01/23 21:02:16;;;;;;;25.70;20.67;;;;;;;;;;4888268;29;20040;-95
2024/01/23 21:04:43;;;;;;;32.55;26.73;;;;;;;;;;4889939;23;20045;-90
2024/01/23 21:07:09;;;;;;;24.05;20.75;;;;;;;;;;4871173;29;20057;-90
2024/01/23 21:09:36;;;;;;;20.42;18.25;;;;;;;;;;4875408;29;20036;-90
2024/01/23 21:12:06;;;;;;;18.38;16.42;;;;;;;;;;4893148;29;20023;-96
2024/01/23 21:14:56;;;;;;;21.13;19.10;;;;;;;;;;4907918;23;20052;-90
2024/01/23 21:17:25;;;;;;;23.38;21.27;;;;;;;;;;4885544;29;20025;-96
2024/01/23 21:19:52;;;;;;;21.85;20.10;;;;;;;;;;4912212;23;20139;-90
2024/01/23 21:22:25;;;;;;;25.58;23.63;;;;;;;;;;4870015;29;20029;-96
2024/01/23 21:24:51;;;;;;;29.45;27.38;;;;;;;;;;4886392;29;20044;-90
2024/01/23 21:27:30;;;;;;;27.73;25.73;;;;;;;;;;4889186;29;20024;-96
2024/01/23 21:30:06;;;;;;;24.17;22.27;;;;;;;;;;4853294;29;20069;-96
2024/01/23 21:32:32;;;;;;;30.70;28.45;;;;;;;;;;4848497;29;20029;-91
2024/01/23 21:35:29;;;;;;;28.55;26.60;;;;;;;;;;4888580;29;20100;-96
2024/01/23 21:38:13;;;;;;;29.23;27.10;;;;;;;;;;4806858;29;20064;-96
2024/01/23 21:40:40;;;;;;;24.25;22.33;;;;;;;;;;4795665;29;20053;-94
2024/01/23 21:43:27;;;;;;;17.05;15.85;;;;;;;;;;4911832;29;20031;-91
2024/01/23 21:45:56;;;;;;;23.23;21.67;;;;;;;;;;4893885;29;20036;-89
2024/01/23 21:48:25;;;;;;;29.35;26.92;;;;;;;;;;4889485;29;20021;-96
2024/01/23 21:50:52;;;;;;;34.55;32.22;;;;;;;;;;4875561;29;20033;-93
2024/01/23 21:53:29;;;;;;;17.60;16.10;;;;;;;;;;4911234;29;20028;-90
2024/01/23 21:56:28;;;;;;;21.60;19.88;;;;;;;;;;4905893;29;20013;-94
2024/01/23 21:58:54;;;;;;;17.20;15.73;;;;;;;;;;4891568;29;20041;-89
2024/01/23 22:01:20;;;;;;;16.73;15.00;;;;;;;;;;4888421;29;20386;-89
2024/01/23 22:03:46;;;;;;;19.15;17.30;;;;;;;;;;4887425;29;20040;-88
2024/01/23 22:06:19;;;;;;;20.92;19.17;;;;;;;;;;4890357;29;20059;-96
2024/01/23 22:08:45;;;;;;;25.83;23.90;;;;;;;;;;4871254;29;20184;-93
2024/01/23 22:11:36;;;;;;;24.40;22.63;;;;;;;;;;4891189;29;20065;-94
2024/01/23 22:14:02;;;;;;;21.38;19.55;;;;;;;;;;4880847;29;20036;-91
2024/01/23 22:16:28;;;;;;;23.45;21.52;;;;;;;;;;4866593;29;20490;-90
2024/01/23 22:18:55;;;;;;;18.45;17.05;;;;;;;;;;4872397;29;20029;-93
2024/01/23 22:21:24;;;;;;;16.48;14.98;;;;;;;;;;4867930;29;20051;-91
2024/01/23 22:23:59;;;;;;;15.15;13.82;;;;;;;;;;4888282;29;20554;-96
2024/01/23 22:26:28;;;;;;;21.38;19.60;;;;;;;;;;4887116;29;20033;-96
2024/01/23 22:28:54;;;;;;;14.73;13.52;;;;;;;;;;4876848;29;20034;-90
2024/01/23 22:31:21;;;;;;;17.25;15.85;;;;;;;;;;4867746;29;20033;-91
2024/01/23 22:33:51;;;;;;;19.83;18.27;;;;;;;;;;4894270;29;20037;-96
2024/01/23 22:36:28;;;;;;;21.15;19.00;;;;;;;;;;4873940;29;20510;-94
2024/01/23 22:38:54;;;;;;;18.85;17.33;;;;;;;;;;4878397;29;20045;-90
2024/01/23 22:41:20;;;;;;;24.45;22.42;;;;;;;;;;4879290;29;20028;-91
2024/01/23 22:43:52;;;;;;;19.73;18.13;;;;;;;;;;4875102;29;20040;-96
2024/01/23 22:46:21;;;;;;;18.15;16.33;;;;;;;;;;4882468;29;20021;-91
2024/01/23 22:48:51;;;;;;;15.07;13.68;;;;;;;;;;4870998;29;20039;-96
2024/01/23 22:51:17;;;;;;;21.98;20.02;;;;;;;;;;4894249;29;20037;-89
2024/01/23 22:53:52;;;;;;;18.50;16.85;;;;;;;;;;4874431;29;20120;-91
2024/01/23 22:59:25;;;;;;;12.27;11.30;;;;;;;;;;4888256;29;20056;-95
2024/01/23 23:01:51;;;;;;;17.95;16.75;;;;;;;;;;4867872;29;20519;-90
2024/01/23 23:04:36;;;;;;;21.00;19.40;;;;;;;;;;4885151;29;20040;-96
2024/01/23 23:07:02;;;;;;;18.30;16.58;;;;;;;;;;4881367;29;20036;-89
2024/01/23 23:09:28;;;;;;;16.45;14.82;;;;;;;;;;4873813;29;20031;-89
2024/01/23 23:12:29;;;;;;;26.80;24.90;;;;;;;;;;4872761;29;20096;-96
2024/01/23 23:14:55;;;;;;;17.83;14.85;;;;;;;;;;4883624;29;20041;-90
2024/01/23 23:17:21;;;;;;;24.85;22.63;;;;;;;;;;4894386;29;20037;-89
2024/01/23 23:19:47;;;;;;;26.58;24.42;;;;;;;;;;4890877;29;20052;-89
2024/01/23 23:22:20;;;;;;;25.13;23.08;;;;;;;;;;4891342;29;20064;-96
2024/01/23 23:24:52;;;;;;;28.02;25.92;;;;;;;;;;4896020;29;20060;-91
2024/01/23 23:27:18;;;;;;;30.60;28.27;;;;;;;;;;4893419;29;20098;-90
2024/01/23 23:30:48;;;;;;;28.23;26.00;;;;;;;;;;4894276;29;20152;-96
2024/01/23 23:32:58;;;;;;;33.15;30.95;;;;;;;;;;4859414;29;20037;-96
2024/01/23 23:35:40;;;;;;;27.35;25.13;;;;;;;;;;4885756;29;20055;-96
2024/01/23 23:40:50;;;;;;;26.05;23.92;;;;;;;;;;4886627;29;20064;-90
2024/01/23 23:43:35;;;;;;;29.55;27.23;;;;;;;;;;4896631;23;20083;-91
2024/01/23 23:49:05;;;;;;;27.67;25.25;;;;;;;;;;4950769;23;20054;-91
2024/01/23 23:51:31;;;;;;;28.67;26.02;;;;;;;;;;5064891;23;20922;-89
2024/01/23 23:56:42;;;;;;;19.40;17.20;;;;;;;;;;4923470;23;20297;-95
2024/01/23 23:59:24;;;;;;;21.50;19.27;;;;;;;;;;4873963;29;20119;-96
